createdAt,value
2019-01-29T00:00:58.669Z,0.20
2019-01-29T00:03:39.231Z,0.10
2019-01-29T00:06:20.082Z,0.20
2019-01-29T00:09:00.775Z,0.10
2019-01-29T00:11:44.564Z,0.20
2019-01-29T00:14:25.085Z,0.10
2019-01-29T00:17:06.318Z,0.20
2019-01-29T00:22:33.449Z,0.00
2019-01-29T00:25:14.282Z,0.00
2019-01-29T00:27:55.740Z,-0.10
2019-01-29T00:30:36.481Z,-0.20
2019-01-29T00:35:59.492Z,-0.20
2019-01-29T00:41:22.911Z,-0.10
2019-01-29T00:44:04.330Z,-0.10
2019-01-29T00:46:44.848Z,-0.10
2019-01-29T00:52:12.827Z,0.00
2019-01-29T00:57:38.541Z,0.00
2019-01-29T01:00:22.815Z,0.00
2019-01-29T01:03:03.423Z,-0.10
2019-01-29T01:05:47.891Z,0.00
2019-01-29T01:08:28.366Z,0.10
2019-01-29T01:11:09.347Z,0.00
2019-01-29T01:13:49.788Z,0.10
2019-01-29T01:16:34.065Z,0.10
2019-01-29T01:19:15.165Z,0.20
2019-01-29T01:21:56.304Z,0.20
2019-01-29T01:30:16.455Z,0.00
2019-01-29T01:32:57.712Z,0.00
2019-01-29T01:35:38.602Z,0.00
2019-01-29T01:38:19.804Z,0.00
2019-01-29T01:41:03.549Z,0.00
2019-01-29T01:43:32.688Z,-0.10
2019-01-29T01:46:20.898Z,-0.20
2019-01-29T01:49:09.023Z,-0.30
2019-01-29T01:51:53.198Z,-0.30
2019-01-29T01:54:33.632Z,-0.30
2019-01-29T01:57:14.621Z,-0.30
2019-01-29T01:59:53.986Z,-0.30
2019-01-29T02:02:38.161Z,-0.40
2019-01-29T02:08:03.841Z,-0.30
2019-01-29T02:10:44.649Z,-0.50
2019-01-29T02:16:14.193Z,-0.60
2019-01-29T02:21:40.140Z,-0.60
2019-01-29T02:27:06.555Z,-0.60
2019-01-29T02:32:32.364Z,-0.60
2019-01-29T02:38:05.036Z,-0.60
2019-01-29T02:40:48.626Z,-0.80
2019-01-29T02:43:29.948Z,-0.80
2019-01-29T02:46:10.457Z,-0.80
2019-01-29T02:51:33.684Z,-0.90
2019-01-29T02:56:56.809Z,-0.60
2019-01-29T02:59:38.213Z,-0.70
2019-01-29T03:02:22.570Z,-0.70
2019-01-29T03:05:03.612Z,-0.70
2019-01-29T03:07:44.620Z,-0.70
2019-01-29T03:10:30.479Z,-0.70
2019-01-29T03:13:14.134Z,-0.70
2019-01-29T03:15:54.608Z,-0.80
2019-01-29T03:18:35.887Z,-0.90
2019-01-29T03:21:16.491Z,-0.90
2019-01-29T03:26:49.271Z,-1.00
2019-01-29T03:32:18.415Z,-1.00
2019-01-29T03:37:47.316Z,-1.10
2019-01-29T03:40:27.851Z,-1.10
2019-01-29T03:43:11.577Z,-1.10
2019-01-29T03:45:40.626Z,-1.10
2019-01-29T03:48:28.890Z,-1.10
2019-01-29T03:51:17.184Z,-1.10
2019-01-29T03:56:46.714Z,-1.00
2019-01-29T04:02:19.192Z,-1.00
2019-01-29T04:07:36.514Z,-0.70
2019-01-29T04:13:09.189Z,-0.50
2019-01-29T04:18:40.838Z,-0.50
2019-01-29T04:21:25.154Z,-0.40
2019-01-29T04:26:51.916Z,-0.30
2019-01-29T04:32:21.675Z,-0.30
2019-01-29T04:35:03.067Z,-0.30
2019-01-29T04:37:43.994Z,-0.30
2019-01-29T04:40:24.605Z,-0.30
2019-01-29T04:43:05.997Z,-0.30
2019-01-29T04:45:47.208Z,-0.20
2019-01-29T04:48:31.415Z,-0.30
2019-01-29T04:54:02.996Z,-0.20
2019-01-29T04:56:46.605Z,-0.20
2019-01-29T05:02:18.458Z,-0.20
2019-01-29T05:07:50.144Z,-0.10
2019-01-29T05:13:22.660Z,-0.20
2019-01-29T05:16:03.107Z,-0.10
2019-01-29T05:18:47.278Z,-0.10
2019-01-29T05:21:28.840Z,-0.10
2019-01-29T05:24:12.699Z,-0.10
2019-01-29T05:26:56.755Z,-0.10
2019-01-29T05:29:38.167Z,0.00
2019-01-29T05:32:18.786Z,-0.10
2019-01-29T05:34:59.335Z,-0.20
2019-01-29T05:37:40.676Z,-0.20
2019-01-29T05:40:21.564Z,-0.20
2019-01-29T05:45:54.880Z,-0.20
2019-01-29T05:48:36.256Z,-0.20
2019-01-29T05:54:02.005Z,-0.10
2019-01-29T06:02:22.798Z,-0.20
2019-01-29T06:05:03.440Z,-0.30
2019-01-29T06:07:47.653Z,-0.40
2019-01-29T06:13:12.064Z,-0.50
2019-01-29T06:18:41.644Z,-0.60
2019-01-29T06:21:22.424Z,-0.70
2019-01-29T06:24:03.645Z,-0.60
2019-01-29T06:26:44.615Z,-0.60
2019-01-29T06:29:25.535Z,-0.70
2019-01-29T06:32:06.059Z,-0.60
2019-01-29T06:34:46.796Z,-0.60
2019-01-29T06:37:28.176Z,-0.60
2019-01-29T06:40:08.918Z,-0.50
2019-01-29T06:42:51.159Z,-0.50
2019-01-29T06:45:32.500Z,-0.40
2019-01-29T06:48:01.524Z,-0.30
2019-01-29T06:50:49.690Z,2.10
2019-01-29T06:53:34.156Z,-0.30
2019-01-29T06:56:15.788Z,-0.20
2019-01-29T06:58:56.483Z,-0.10
2019-01-29T07:01:37.562Z,0.00
2019-01-29T07:04:06.494Z,-0.10
2019-01-29T07:06:54.711Z,-0.10
2019-01-29T07:09:38.475Z,-0.10
2019-01-29T07:12:19.137Z,-0.10
2019-01-29T07:15:00.357Z,-0.20
2019-01-29T07:17:44.222Z,0.00
2019-01-29T07:23:09.910Z,-0.10
2019-01-29T07:25:51.167Z,0.00
2019-01-29T07:28:35.639Z,0.00
2019-01-29T07:31:16.238Z,0.00
2019-01-29T07:34:00.339Z,0.00
2019-01-29T07:39:29.794Z,-0.10
2019-01-29T07:45:21.123Z,-0.20
2019-01-29T07:48:04.950Z,-0.10
2019-01-29T07:53:30.482Z,0.00
2019-01-29T07:59:03.133Z,0.10
2019-01-29T08:01:32.301Z,0.20
2019-01-29T08:04:20.623Z,0.20
2019-01-29T08:07:08.871Z,0.20
2019-01-29T08:09:50.115Z,0.20
2019-01-29T08:15:20.175Z,0.30
2019-01-29T08:20:52.613Z,0.50
2019-01-29T08:23:36.992Z,0.40
2019-01-29T08:26:18.393Z,0.40
2019-01-29T08:29:02.478Z,0.60
2019-01-29T08:31:47.054Z,0.60
2019-01-29T08:34:31.139Z,0.70
2019-01-29T08:40:03.486Z,0.70
2019-01-29T08:45:35.840Z,0.80
2019-01-29T08:48:19.340Z,0.80
2019-01-29T08:53:51.287Z,0.90
2019-01-29T08:56:32.474Z,0.90
2019-01-29T08:59:16.330Z,1.00
2019-01-29T09:01:57.679Z,0.70
2019-01-29T09:04:42.142Z,0.80
2019-01-29T09:07:23.265Z,0.90
2019-01-29T09:10:07.025Z,0.90
2019-01-29T09:15:39.335Z,1.10
2019-01-29T09:18:23.544Z,0.90
2019-01-29T09:26:47.657Z,0.90
2019-01-29T09:29:31.185Z,0.90
2019-01-29T09:34:59.651Z,0.80
2019-01-29T09:40:29.043Z,1.20
2019-01-29T09:46:00.778Z,1.40
2019-01-29T09:48:44.809Z,1.50
2019-01-29T09:54:14.520Z,1.50
2019-01-29T09:56:56.013Z,1.50
2019-01-29T09:59:37.619Z,1.70
2019-01-29T10:05:05.314Z,1.70
2019-01-29T10:10:34.826Z,1.90
2019-01-29T10:16:07.000Z,1.90
2019-01-29T10:18:48.483Z,2.20
2019-01-29T10:21:30.323Z,2.20
2019-01-29T10:24:11.385Z,2.40
2019-01-29T10:26:52.124Z,2.60
2019-01-29T10:29:32.965Z,2.60
2019-01-29T10:32:02.097Z,2.60
2019-01-29T10:34:50.425Z,2.50
2019-01-29T10:37:38.788Z,2.50
2019-01-29T10:40:25.020Z,2.40
2019-01-29T10:43:06.875Z,2.30
2019-01-29T10:45:48.859Z,2.20
2019-01-29T10:48:29.821Z,2.40
2019-01-29T10:51:10.965Z,2.60
2019-01-29T10:53:54.891Z,2.50
2019-01-29T10:59:20.589Z,2.40
2019-01-29T11:02:01.281Z,2.40
2019-01-29T11:04:42.334Z,2.50
2019-01-29T11:07:23.707Z,2.30
2019-01-29T11:10:07.222Z,2.20
2019-01-29T11:12:48.617Z,2.40
2019-01-29T11:15:29.195Z,2.30
2019-01-29T11:18:09.939Z,2.20
2019-01-29T11:21:17.434Z,2.20
2019-01-29T11:23:46.334Z,2.10
2019-01-29T11:26:26.993Z,2.10
2019-01-29T11:29:08.500Z,1.90
2019-01-29T11:31:49.818Z,2.00
2019-01-29T11:34:31.215Z,1.80
2019-01-29T11:37:12.239Z,1.70
2019-01-29T11:39:53.553Z,1.60
2019-01-29T11:42:22.707Z,1.60
2019-01-29T11:45:12.746Z,1.60
2019-01-29T11:51:16.234Z,1.70
2019-01-29T11:53:57.540Z,1.90
2019-01-29T11:56:38.551Z,1.90
2019-01-29T11:59:19.203Z,2.00
2019-01-29T12:05:23.465Z,1.70
2019-01-29T12:08:02.809Z,1.80
2019-01-29T12:10:43.969Z,1.50
2019-01-29T12:13:24.944Z,1.50
2019-01-29T12:16:06.355Z,1.50
2019-01-29T12:18:53.612Z,1.50
2019-01-29T12:21:31.027Z,1.50
2019-01-29T12:24:13.139Z,1.60
2019-01-29T12:26:54.035Z,1.80
2019-01-29T12:29:34.959Z,2.00
2019-01-29T12:32:16.071Z,1.90
2019-01-29T12:34:57.439Z,2.00
2019-01-29T12:37:38.914Z,2.60
2019-01-29T12:40:08.388Z,3.10
2019-01-29T12:42:56.672Z,3.70
2019-01-29T12:45:44.890Z,4.20
2019-01-29T12:48:25.494Z,4.30
2019-01-29T12:51:12.795Z,4.20
2019-01-29T12:53:53.356Z,4.20
2019-01-29T12:56:34.429Z,4.10
2019-01-29T12:59:15.904Z,4.00
2019-01-29T13:02:08.831Z,3.40
2019-01-29T13:10:30.250Z,3.20
2019-01-29T13:19:00.511Z,2.60
2019-01-29T13:21:41.098Z,2.50
2019-01-29T13:24:23.312Z,2.40
2019-01-29T13:27:23.394Z,2.20
2019-01-29T13:29:56.782Z,2.30
2019-01-29T13:35:21.332Z,2.50
2019-01-29T13:38:02.666Z,2.30
2019-01-29T13:40:43.525Z,2.50
2019-01-29T13:48:56.156Z,2.40
2019-01-29T13:51:36.729Z,2.60
2019-01-29T14:00:13.134Z,2.30
2019-01-29T14:02:54.099Z,2.40
2019-01-29T14:05:38.248Z,2.60
2019-01-29T14:10:58.143Z,2.30
2019-01-29T14:19:43.571Z,2.30
2019-01-29T14:25:12.247Z,2.70
2019-01-29T14:30:44.917Z,2.70
2019-01-29T14:36:02.804Z,2.20
2019-01-29T14:39:10.346Z,2.20
2019-01-29T14:42:13.824Z,2.10
2019-01-29T14:47:44.163Z,2.10
2019-01-29T14:50:28.589Z,2.00
2019-01-29T14:53:27.383Z,1.90
2019-01-29T14:56:13.382Z,1.90
2019-01-29T14:58:54.978Z,1.70
2019-01-29T15:01:36.250Z,1.60
2019-01-29T15:10:31.303Z,1.70
2019-01-29T15:14:03.312Z,1.70
2019-01-29T15:19:19.548Z,1.70
2019-01-29T15:22:00.995Z,1.50
2019-01-29T15:24:48.043Z,1.60
2019-01-29T15:33:07.912Z,1.50
2019-01-29T15:35:53.456Z,1.50
2019-01-29T15:41:38.467Z,1.60
2019-01-29T15:44:23.253Z,1.60
2019-01-29T15:49:54.922Z,1.50
2019-01-29T15:52:37.197Z,1.40
2019-01-29T15:55:37.615Z,1.20
2019-01-29T15:58:09.310Z,1.10
2019-01-29T16:00:59.675Z,1.00
2019-01-29T16:10:05.574Z,1.00
2019-01-29T16:12:47.071Z,0.80
2019-01-29T16:15:27.741Z,0.90
2019-01-29T16:20:55.442Z,0.70
2019-01-29T16:26:42.475Z,0.50
2019-01-29T16:35:34.292Z,0.50
2019-01-29T16:41:12.462Z,0.50
2019-01-29T16:46:50.952Z,0.50
2019-01-29T16:49:20.169Z,0.50
2019-01-29T16:52:08.488Z,0.50
2019-01-29T16:54:53.278Z,0.40
2019-01-29T16:57:34.685Z,0.40
2019-01-29T17:00:20.915Z,0.40
2019-01-29T17:03:02.162Z,0.40
2019-01-29T17:05:53.182Z,0.30
2019-01-29T17:08:34.129Z,0.20
2019-01-29T17:11:15.174Z,0.10
2019-01-29T17:16:42.844Z,-0.10
2019-01-29T17:19:24.036Z,-0.20
2019-01-29T17:22:04.832Z,-0.10
2019-01-29T17:24:45.817Z,-0.30
2019-01-29T17:27:40.060Z,-0.30
2019-01-29T17:32:56.527Z,-0.40
2019-01-29T17:35:37.023Z,-0.40
2019-01-29T17:41:09.948Z,-0.50
2019-01-29T17:43:51.325Z,-0.50
2019-01-29T17:46:32.548Z,-0.60
2019-01-29T17:49:13.222Z,-0.70
2019-01-29T17:54:44.929Z,-0.60
2019-01-29T17:57:26.304Z,-0.60
2019-01-29T18:00:07.679Z,-0.70
2019-01-29T18:08:08.674Z,-0.70
2019-01-29T18:10:37.859Z,-0.70
2019-01-29T18:13:26.162Z,-0.70
2019-01-29T18:16:14.705Z,-0.80
2019-01-29T18:18:58.416Z,-0.80
2019-01-29T18:21:43.539Z,-0.80
2019-01-29T18:24:19.224Z,-0.80
2019-01-29T18:27:00.110Z,-0.70
2019-01-29T18:29:41.839Z,-0.80
2019-01-29T18:32:21.174Z,-0.80
2019-01-29T18:35:02.060Z,-0.70
2019-01-29T18:40:30.055Z,-0.70
2019-01-29T18:43:10.742Z,-0.70
2019-01-29T18:45:51.609Z,-0.70
2019-01-29T18:48:21.614Z,-0.70
2019-01-29T18:51:10.010Z,-0.70
2019-01-29T18:53:58.419Z,-0.70
2019-01-29T18:56:38.952Z,-0.70
2019-01-29T18:59:19.641Z,-0.80
2019-01-29T19:01:48.829Z,-0.80
2019-01-29T19:04:37.095Z,-0.80
2019-01-29T19:07:21.315Z,-0.70
2019-01-29T19:10:02.102Z,-0.80
2019-01-29T19:12:45.858Z,-0.90
2019-01-29T19:18:11.533Z,-1.00
2019-01-29T19:20:52.096Z,-0.80
2019-01-29T19:23:33.486Z,-0.90
2019-01-29T19:26:13.997Z,-0.90
2019-01-29T19:28:57.603Z,-0.80
2019-01-29T19:31:38.272Z,-0.90
2019-01-29T19:34:19.688Z,-0.90
2019-01-29T19:40:16.372Z,-0.90
2019-01-29T19:42:57.718Z,-1.00
2019-01-29T19:45:41.701Z,-1.00
2019-01-29T19:48:22.928Z,-0.90
2019-01-29T19:54:04.259Z,-1.00
2019-01-29T19:56:45.113Z,-1.00
2019-01-29T19:59:25.864Z,-1.00
2019-01-29T20:02:10.121Z,-1.00
2019-01-29T20:10:22.435Z,-1.10
2019-01-29T20:13:03.264Z,-1.00
2019-01-29T20:15:42.782Z,-1.00
2019-01-29T20:18:26.729Z,-1.00
2019-01-29T20:23:49.890Z,-1.10
2019-01-29T20:26:31.261Z,-1.10
2019-01-29T20:29:11.824Z,-1.00
2019-01-29T20:31:51.088Z,-1.00
2019-01-29T20:34:35.534Z,-1.10
2019-01-29T20:37:16.977Z,-1.00
2019-01-29T20:39:57.888Z,-1.10
2019-01-29T20:42:27.122Z,-1.10
2019-01-29T20:45:15.470Z,-0.90
2019-01-29T20:48:03.742Z,-1.10
2019-01-29T20:50:44.579Z,-0.90
2019-01-29T20:53:25.354Z,-1.00
2019-01-29T20:56:06.761Z,-1.00
2019-01-29T20:58:52.705Z,-1.00
2019-01-29T21:01:30.878Z,-1.00
2019-01-29T21:04:13.464Z,-1.00
2019-01-29T21:06:57.429Z,-1.00
2019-01-29T21:09:38.481Z,-1.00
2019-01-29T21:12:21.127Z,-1.00
2019-01-29T21:15:02.573Z,-0.90
2019-01-29T21:20:32.171Z,-1.00
2019-01-29T21:23:12.971Z,-0.90
2019-01-29T21:25:54.249Z,-1.00
2019-01-29T21:31:17.368Z,-0.90
2019-01-29T21:33:59.358Z,-1.00
2019-01-29T21:36:40.512Z,-1.00
2019-01-29T21:42:04.060Z,-1.00
2019-01-29T21:44:44.631Z,-1.00
2019-01-29T21:47:13.696Z,-1.00
2019-01-29T21:50:11.389Z,-1.00
2019-01-29T21:52:44.719Z,-0.90
2019-01-29T21:55:14.039Z,-0.90
2019-01-29T21:57:43.001Z,-0.90
2019-01-29T22:00:50.479Z,-0.90
2019-01-29T22:03:38.556Z,-0.90
2019-01-29T22:06:19.515Z,-0.90
2019-01-29T22:08:59.995Z,-0.90
2019-01-29T22:14:22.988Z,-0.90
2019-01-29T22:17:03.815Z,-1.00
2019-01-29T22:19:47.918Z,-1.00
2019-01-29T22:22:29.322Z,-1.00
2019-01-29T22:24:58.332Z,-1.00
2019-01-29T22:27:46.427Z,-0.90
2019-01-29T22:30:29.344Z,-1.00
2019-01-29T22:35:52.252Z,-1.00
2019-01-29T22:38:32.820Z,-1.00
2019-01-29T22:41:17.266Z,-1.00
2019-01-29T22:43:57.818Z,-1.10
2019-01-29T22:46:41.393Z,-1.10
2019-01-29T22:49:22.781Z,-1.10
2019-01-29T22:52:06.724Z,-1.10
2019-01-29T22:54:47.180Z,-1.00
2019-01-29T22:57:27.827Z,-1.10
2019-01-29T23:00:08.857Z,-1.00
2019-01-29T23:02:50.023Z,-1.10
2019-01-29T23:05:31.040Z,-1.10
2019-01-29T23:08:12.278Z,-1.10
2019-01-29T23:13:35.888Z,-1.00
2019-01-29T23:16:04.951Z,-1.00
2019-01-29T23:18:46.146Z,-1.00
2019-01-29T23:21:26.895Z,-1.10
2019-01-29T23:24:07.863Z,-1.00
2019-01-29T23:26:48.828Z,-1.00
2019-01-29T23:29:29.667Z,-1.00
2019-01-29T23:32:10.594Z,-1.10
2019-01-29T23:34:51.516Z,-1.10
2019-01-29T23:37:32.059Z,-0.90
2019-01-29T23:40:14.221Z,-1.10
2019-01-29T23:42:55.218Z,-0.90
2019-01-29T23:45:36.574Z,-1.10
2019-01-29T23:48:17.754Z,-1.10
2019-01-29T23:51:01.661Z,-1.10
2019-01-29T23:53:42.296Z,-1.10
2019-01-29T23:56:23.099Z,-1.30
